ACT        NSW        VIC        QLD        SA        WA        TAS        NT        INFO        CALC            by VK5ZD

Past Date/Time: (dd/mm/yyyy hh:mm or blank for current data)    

  Atmospheric Gas Attenuation - ITU Rec 676-11   --------------- dB/100km ---------------
WA Stations Date Time Temp RH % AH g/m3 Dew Point Wind Direction Speed kph Gust kph Barometer mB Rainfall Since 9am 24GHz 47GHz 76GHz 122GHz 134GHz 241GHz
Albany Airport 06/05 23:30 13.8 96 11.44 13.2 13 19 1033.5 0.4 25.6 31.6 52.9 139.0 140.0 483.8
Badgingarra 06/05 23:30 14.5 59 7.34 6.6 26 37 1013.1 0 16.9 23.7 34.6 90.5 81.4 279.0
Barimunya 06/05 23:30 20.9 32 5.83 3.6 39 59 1018.3 0 13.4 20.2 27.0 70.4 58.6 199.6
Barrow Island 06/05 23:30 25.4 59 13.89 16.8 24 28 1014 0 30.1 30.8 54.4 143.5 150.3 521.3
Bedout Island 06/05 23:30 26 67 16.31 19.4 20 24 1012.6 0 35.2 34.7 64.0 169.2 182.1 632.5
Bickley 06/05 23:30 11.7 69 7.22 6.2 28 43 1013.1 0 16.7 24.3 35.3 92.4 82.8 283.6
Boolgeeda 06/05 23:30 20 32 5.53 2.8 7 11 1016.4 0 12.9 19.9 26.3 68.3 55.9 190.0
Bridgetown 06/05 23:30 10.8 79 7.81 7.3 2 4 1032.5 0 18.0 26.2 38.9 101.8 93.1 319.2
Broome 06/05 23:30 24.5 67 14.99 18 17 24 1014.2 0 32.5 33.0 59.6 157.5 167.2 580.2
Bunbury 06/05 23:30 12.7 77 8.57 8.8 4 6 1031.6 0 19.6 26.9 41.1 107.5 100.9 347.0
Busselton Airport 06/05 23:30 11.4 79 8.11 7.9 13 17 1031.7 0 18.6 26.5 39.8 104.2 96.3 330.8
Cape Leeuwin 06/05 23:30 16.3 76 10.54 12.1 37 43 1032 0.2 23.6 29.1 47.3 124.2 122.7 423.7
Cape Naturaliste 06/05 23:30 14.8 73 9.25 10 33 46 1030.8 0 20.9 27.3 42.7 112.0 107.2 369.3
Carnarvon 06/05 23:30 16.1 42 5.76 3.2 17 19 1019.6 0 13.5 21.2 28.4 74.0 61.4 209.0
Christmas Creek 06/05 23:30 22.5 28 5.59 3.1 24 33 1018.6 0 12.9 19.6 25.8 67.0 54.9 186.9
Christmas Island 06/05 23:30 26.1 85 20.81 23.4 20 30 1010.7 0 44.7 42.9 84.5 223.8 249.2 865.9
Cocos Island 06/05 23:30 28.3 92 25.44 26.9 15 26 1011.2 0 54.3 51.0 105.2 278.7 317.2 1102.3
Collie East 06/05 23:30 11.3 79 8.06 7.8 6 13 1013.1 0 18.6 25.7 38.8 101.9 94.3 323.9
Coondewanna 06/05 23:30 19.9 33 5.67 3.2 28 35 1018.5 0 13.1 20.2 26.8 69.8 57.6 195.9
Cunderdin Airport 06/05 23:30 12 70 7.46 6.7 13 19 1030.8 0 17.2 25.2 36.9 96.4 86.9 297.7
Curtin 06/05 23:30 21.3 89 16.59 19.4 11 15 1014.6 0.2 36.2 37.3 69.5 183.7 198.4 688.4
Dalwallinu 06/05 23:30 13.6 60 7.06 6 26 35 1028.1 0 16.3 24.1 34.5 90.0 79.8 273.3
Donnybrook 06/05 09:00 13.1 87 9.93 11 19 1013.1 0 22.5 28.3 45.7 120.1 117.5 405.0
Dwellingup 06/05 23:30 11.6 76 7.9 7.5 22 35 1030.9 0 18.2 26.1 38.8 101.6 93.2 319.8
Eliwana Airport 06/05 23:30 22 27 5.24 2.2 15 20 1013.1 0 12.2 19.0 24.6 64.0 51.3 174.2
Esperance 06/05 23:30 14.1 91 11.04 12.7 7 9 1033.5 0.2 24.8 30.7 50.9 133.7 133.6 461.6
Esperance Airport 06/05 23:30 12.8 92 10.31 11.5 9 15 1033.5 0 23.3 29.9 48.5 127.4 125.3 432.2
Eucla 06/05 23:30 15.4 90 11.82 13.8 11 19 1030.7 0.2 26.4 31.5 53.3 140.3 142.3 492.1
Fitzroy Crossing 06/05 23:30 22.9 85 17.37 20.2 1014.6 0.6 37.7 38.0 71.7 189.5 206.0 715.1
Forrest 06/05 23:30 10.6 89 8.69 8.9 9 13 1030.6 0 19.9 27.7 42.6 111.7 105.3 362.0
Fortescue Dave Forrest 06/05 23:30 21.5 32 6.03 4.1 26 37 1017.9 0 13.8 20.3 27.5 71.6 60.3 205.7
Garden Island 06/05 23:30 15.4 65 8.54 8.9 15 20 1030.3 0 19.4 26.0 39.5 103.5 97.0 333.6
Geraldton Airport 06/05 23:30 14.9 50 6.37 4.6 19 20 1025 0 14.8 22.6 31.3 81.5 69.9 238.6
Gerangamete (Cfa) 07/05 01:20 5.4 87 6.07 3.5 22 26 1013.1 7.8 14.5 24.1 33.4 87.4 74.0 252.0
Giles* 07/05 01:00 14 44 5.31 2 20 28 1024.3 0.2 12.6 21.2 27.7 72.1 58.0 196.7
Gingin Airport 06/05 23:30 15 59 7.57 7.1 24 30 1029.3 0 17.3 24.5 35.9 93.8 84.9 291.2
Golden Grove 06/05 23:30 15.7 49 6.56 5 19 24 1026.1 0 15.2 22.7 31.7 82.6 71.6 244.5
Gooseberry Hill 06/05 23:30 14.2 60 7.33 6.6 26 41 1013.1 0 16.9 23.8 34.6 90.7 81.6 279.7
Gudai-Darri Mine 06/05 23:30 22.2 31 6.09 4.3 28 39 1013.1 0 13.9 20.1 27.3 71.1 60.2 205.4
Halls Creek 07/05 01:00 20 50 8.64 9.3 13 15 1016 0 19.4 24.3 37.1 97.3 91.6 315.5
Hopetoun North 06/05 23:30 12.2 94 10.14 11.3 4 4 1032.7 0 22.9 29.8 48.1 126.3 123.7 426.7
Iron Bridge Mine 06/05 23:30 25.8 29 6.98 6.4 22 30 1015 0 15.7 20.6 29.0 75.8 67.0 229.7
Jacup 06/05 23:30 7.7 92 7.46 6.5 2 6 1033.1 0 17.4 26.6 39.0 102.0 92.0 315.1
Jandakot 06/05 23:30 15.3 56 7.31 6.6 24 32 1030.1 0 16.8 24.1 34.8 90.9 81.4 278.9
Kalgoorlie-Boulder 06/05 23:30 10.9 71 7.06 5.9 9 15 1030.6 0 16.4 24.9 35.8 93.4 82.8 283.3
Kalumburu 07/05 01:00 24.3 68 15.05 18.2 7 11 1013 0 32.6 33.2 60.0 158.4 168.3 584.1
Karijini North 06/05 23:30 23.6 27 5.74 3.5 28 48 1016.9 0 13.2 19.5 25.8 67.2 55.7 189.7
Karnet 06/05 15:00 18.5 58 9.18 10.2 2 1013.1 0 20.6 25.5 39.7 104.3 99.9 344.4
Karratha 06/05 23:30 21.7 57 10.87 12.8 15 17 1014.1 0 24.0 27.2 44.6 117.4 117.1 404.9
Katanning Rs 06/05 23:30 9.7 90 8.3 8.1 7 11 1032.9 0 19.1 27.4 41.6 108.8 101.2 347.6
Koolan Island / Koolan Central 06/05 23:30 26.4 80 19.92 22.7 11 15 1013.1 0 42.8 41.1 80.1 211.9 234.7 815.3
Kununurra Airport 07/05 01:00 25.7 37 8.86 9.9 17 24 1014.6 0 19.6 23.1 35.3 92.6 87.7 302.5
Lake Grace 06/05 23:30 11 90 9.01 9.4 13 19 1032.5 0.2 20.6 28.2 43.9 115.0 109.4 376.4
Lancelin (Defence) 06/05 23:30 15.3 59 7.7 7.3 15 22 1027.9 0 17.6 24.6 36.2 94.6 86.1 295.5
Laverton 06/05 23:30 13.5 69 8.07 7.9 20 28 1028.8 0 18.5 25.7 38.5 100.8 93.0 319.5
Learmonth 06/05 23:30 15 50 6.41 4.7 17 17 1016.3 0 14.9 22.3 31.0 81.0 69.8 238.2
Legendre Island 06/05 23:30 24.8 62 14.11 17 20 24 1013.9 0 30.6 31.4 55.7 147.0 154.4 535.6
Leinster 06/05 23:30 14.4 57 7.05 6 15 22 1026.1 0 16.3 23.8 34.0 88.9 78.8 269.7
Leonora Airport 06/05 23:30 13.4 60 6.98 5.8 15 20 1028.6 0 16.1 24.0 34.3 89.5 79.1 270.5
Lombadina 06/05 23:30 24.2 89 19.58 22.3 0 0 1012.7 0 42.3 41.5 80.8 213.7 236.2 820.5
Mandora 06/05 23:30 26.1 57 13.95 16.9 13 26 1013.5 0 30.2 30.7 54.1 142.8 149.7 519.2
Mandurah 06/05 23:30 14.6 62 7.76 7.4 6 9 1030.5 0 17.7 25.0 36.8 96.3 87.9 301.5
Manjimup 06/05 23:30 10.4 92 8.87 9.2 13 22 1032.7 0 20.3 28.1 43.6 114.3 108.3 372.4
Marble Bar 06/05 23:30 26 29 7.06 6.6 17 24 1015.5 0 15.8 20.6 29.2 76.3 67.7 232.3
Mardie 06/05 23:30 19.5 72 12.08 14.3 6 7 1014.3 0 26.7 29.9 50.9 134.0 136.8 473.4
Meekatharra 06/05 23:30 15.8 46 6.19 4.2 24 35 1024.1 0 14.4 22.1 30.2 78.8 66.9 228.3
Millendon (Swan Valley) 06/05 23:30 15.5 57 7.53 7 4 11 1029.5 0 17.2 24.3 35.5 92.8 83.9 287.7
Morawa Airport 06/05 23:30 13.3 59 6.82 5.5 13 17 1026.6 0 15.8 23.7 33.6 87.8 77.0 263.4
Mount Keith 06/05 23:30 14.1 57 6.92 5.7 20 28 1026.2 0 16.0 23.6 33.7 87.9 77.5 265.0
Mount Magnet Airport 06/05 23:30 16.4 47 6.56 5.1 24 33 1025.7 0 15.1 22.5 31.4 81.9 70.9 242.3
Munglinup West 06/05 23:30 9.8 92 8.54 8.6 7 7 1033 0 19.6 27.8 42.5 111.4 104.5 359.0
Newdegate 06/05 23:30 9.8 87 8.07 7.7 9 11 1032.3 0 18.6 26.9 40.5 106.0 97.9 335.8
Newman Airport 06/05 23:30 20.1 33 5.74 3.3 30 41 1019.6 0 13.3 20.3 27.0 70.3 58.2 198.3
Norseman Airport 06/05 23:30 12.2 84 9.07 9.6 11 15 1032.1 0 20.7 27.9 43.4 113.9 108.5 373.5
North Island 06/05 23:30 21.6 52 9.86 11.3 32 43 1024.2 0 21.8 26.0 41.3 108.3 105.3 363.7
Ongerup 06/05 09:00 14.5 62 7.71 7.4 9 1032.2 0 17.6 25.0 36.8 96.1 87.5 300.0
Onslow Airport 06/05 23:30 21 38 6.96 6.2 19 20 1015.4 0 15.8 21.6 30.7 80.2 70.8 242.8
Paraburdoo 06/05 23:30 22.6 29 5.83 3.7 26 35 1017.1 0 13.4 19.8 26.4 68.8 57.3 195.4
Pearce 06/05 23:30 16.9 50 7.19 6.4 20 32 1029 0 16.4 23.4 33.6 87.8 78.2 268.0
Perth 06/05 23:30 15.5 58 7.67 7.3 7 13 1029.8 0 17.5 24.6 36.1 94.3 85.7 293.9
Perth Airport 06/05 23:30 15.1 57 7.35 6.7 19 20 1029.8 0 16.9 24.2 35.0 91.5 82.1 281.3
Port Hedland 06/05 23:30 22.2 52 10.21 11.9 9 11 1013.6 0 22.6 26.0 41.8 109.9 108.0 373.1
Portable Btsa (Dfes) 06/05 23:20 19.8 30 5.12 1.9 13 15 1013.1 0 12.0 19.3 24.9 64.7 51.4 174.4
Portable Btsb (Dfes) 06/05 23:20 11 69 6.91 5.5 11 11 1013.1 0 16.1 24.0 34.4 90.0 79.5 272.1
Portable Btsd (Dfes) 06/05 23:20 8.7 79 6.83 5.3 7 9 1013.1 0 16.0 24.5 35.1 91.8 80.9 276.4
Portable Btsf (Dfes) 06/05 23:00 15.8 44 5.92 3.6 32 37 1013.1 0 13.8 21.3 28.9 75.3 63.1 215.1
Portable Btsh (Dfes) 06/05 23:20 11.4 89 9.14 9.7 4 4 1013.1 0 20.9 27.5 43.3 113.7 108.9 375.0
Portable Btsj (Dfes) 06/05 23:20 15.5 55 7.27 6.7 7 11 1013.1 0 16.7 23.3 33.9 88.6 79.5 272.6
Portable Btsk (Dfes) 06/05 23:20 15.7 43 5.75 3.3 6 6 1013.1 0 13.5 21.1 28.3 73.8 61.2 208.5
Portable Btsl (Dfes) 06/05 23:20 9.5 88 8.01 7.7 2 2 1013.1 0 18.5 26.2 39.5 103.7 95.9 329.0
Portable Btsm (Dfes) 06/05 23:20 17.2 35 5.13 1.7 6 7 1013.1 0 12.1 19.9 25.7 66.8 53.2 180.3
Portable Btsn (Dfes) 06/05 23:20 14.6 53 6.63 5.1 13 17 1013.1 0 15.4 22.6 31.9 83.3 72.6 248.1
Portable Btso (Dfes) 06/05 23:20 12.5 73 8.03 7.8 6 7 1013.1 0 18.4 25.3 38.1 100.0 92.5 317.6
Red Rocks Point 06/05 23:30 15.4 92 12.09 14.1 37 48 1031.4 1.4 26.9 32.1 54.6 143.6 146.4 506.2
Rocky Gully South 06/05 23:30 10.1 94 8.89 9.2 7 9 1013.1 0 20.4 27.5 42.9 112.8 107.3 369.1
Roebourne Airport 06/05 23:30 20.4 58 10.26 11.9 11 13 1014.5 0 22.8 26.6 43.0 113.0 111.2 384.1
Rottnest Island 06/05 23:30 17 58 8.39 8.7 19 26 1029.6 0 19.0 25.3 38.1 99.8 93.1 320.0
Salmon Gums Rs 06/05 23:30 6.8 99 7.58 6.7 0 0 1013.1 0 17.7 26.3 39.1 102.5 93.2 319.4
Shannon 06/05 23:30 10.8 95 9.39 10 7 15 1013.1 0 21.4 28.1 44.7 117.5 113.3 390.3
Shark Bay Airport 06/05 23:30 16.4 65 9.07 9.8 15 17 1020.5 0 20.5 26.2 40.7 106.7 101.8 350.7
Solomon Airport 06/05 23:30 18.9 37 5.99 3.9 6 9 1016.2 0 13.9 20.8 28.2 73.4 61.7 210.4
Southern Cross Airport 06/05 23:30 10.3 73 6.99 5.7 13 17 1031 0 16.3 25.0 35.8 93.4 82.6 282.3
Swanbourne 06/05 23:30 16 68 9.26 10.1 13 22 1013.1 0 20.9 26.3 41.3 108.5 104.2 359.1
Telfer 06/05 23:30 23.4 29 6.1 4.4 24 35 1017.5 0 13.9 20.0 27.1 70.5 59.6 203.6
Thevenard Island 06/05 23:30 25.3 40 9.36 10.7 28 35 1015 0 20.6 23.9 37.2 97.8 93.9 324.3
Troughton Island 07/05 01:00 28.2 65 17.87 21 32 39 1012.5 0 38.3 36.5 68.9 182.3 198.9 691.0
Truscott 07/05 01:00 24.6 69 15.53 18.5 11 17 1012.3 0 33.6 33.9 61.8 163.2 174.3 605.1
Walpole North 06/05 23:30 11.7 94 9.83 10.8 11 17 1033 0 22.3 29.4 47.0 123.5 120.1 413.9
Wandering 06/05 23:30 11.7 74 7.74 7.2 9 15 1013.1 0 17.8 25.1 37.4 97.9 89.6 307.4
Warburton 07/05 01:00 14.5 51 6.34 4.5 20 28 1025.5 0 14.7 22.6 31.3 81.6 69.9 238.6
West Angelas 06/05 23:30 19.5 35 5.87 3.6 24 41 1017.7 0 13.6 20.5 27.6 71.9 60.0 204.5
West Musgrave Airport 06/05 23:30 13.8 46 5.48 2.4 17 24 1013.1 0 13.0 21.1 28.0 73.0 59.5 202.2
Wiluna Airport 06/05 23:30 13.9 52 6.23 4.2 15 20 1025.2 0 14.5 22.6 31.1 81.1 69.1 235.6
Witchcliffe West 06/05 23:30 11.5 96 9.92 10.9 15 17 1031.8 0 22.5 29.6 47.5 124.7 121.6 419.1
Wyndham Airport 07/05 01:00 23.4 53 11.14 13.3 7 9 1014 0 24.5 27.1 44.7 117.7 118.0 408.1
Yampi Sound (Defence) 06/05 23:30 22.6 97 19.48 22.1 2 6 1016.9 8.6 42.2 42.3 82.3 217.7 240.5 835.0

Last Refresh: 07-May-2026 01:05:33

Bureau of Meteorology